createdAt,value
2022-10-17T00:01:59.968Z,51.19
2022-10-17T00:04:26.459Z,51.16
2022-10-17T00:06:52.936Z,51.05
2022-10-17T00:09:19.406Z,51.07
2022-10-17T00:11:45.868Z,51.15
2022-10-17T00:14:12.335Z,51.24
2022-10-17T00:16:38.834Z,51.13
2022-10-17T00:19:07.004Z,51.11
2022-10-17T00:21:33.846Z,50.86
2022-10-17T00:24:01.387Z,51.09
2022-10-17T00:26:30.925Z,51.01
2022-10-17T00:28:57.481Z,51.25
2022-10-17T00:31:25.030Z,51.08
2022-10-17T00:33:52.199Z,51.10
2022-10-17T00:36:24.671Z,51.21
2022-10-17T00:38:55.260Z,51.05
2022-10-17T00:41:25.701Z,51.14
2022-10-17T00:43:53.641Z,51.37
2022-10-17T00:46:21.693Z,51.13
2022-10-17T00:48:50.080Z,50.85
2022-10-17T00:51:17.661Z,51.05
2022-10-17T00:53:44.382Z,51.11
2022-10-17T00:56:11.448Z,51.07
2022-10-17T00:58:38.017Z,50.95
2022-10-17T01:01:04.627Z,51.19
2022-10-17T01:03:31.188Z,51.02
2022-10-17T01:05:57.696Z,50.99
2022-10-17T01:08:24.403Z,51.12
2022-10-17T01:11:22.597Z,50.96
2022-10-17T01:14:05.276Z,51.09
2022-10-17T01:16:37.461Z,51.12
2022-10-17T01:19:09.913Z,51.14
2022-10-17T01:21:51.258Z,50.98
2022-10-17T01:24:29.613Z,51.01
2022-10-17T01:27:23.149Z,50.96
2022-10-17T01:30:02.240Z,51.00
2022-10-17T01:32:39.273Z,51.09
2022-10-17T01:35:32.700Z,50.89
2022-10-17T01:38:09.271Z,51.06
2022-10-17T01:40:57.106Z,50.97
2022-10-17T01:43:50.340Z,51.08
2022-10-17T01:46:28.158Z,51.15
2022-10-17T01:48:58.064Z,50.90
2022-10-17T01:51:49.226Z,50.92
2022-10-17T01:54:23.877Z,51.06
2022-10-17T01:56:56.031Z,51.12
2022-10-17T01:59:29.085Z,50.94
2022-10-17T02:01:58.459Z,51.07
2022-10-17T02:04:26.191Z,50.81
2022-10-17T02:06:52.672Z,51.03
2022-10-17T02:09:22.599Z,51.03
2022-10-17T02:12:30.397Z,50.54
2022-10-17T02:15:24.112Z,51.02
2022-10-17T02:18:11.817Z,51.05
2022-10-17T02:21:01.341Z,50.93
2022-10-17T02:23:35.396Z,50.94
2022-10-17T02:26:24.760Z,51.07
2022-10-17T02:28:54.147Z,50.80
2022-10-17T02:31:26.729Z,51.06
2022-10-17T02:34:03.993Z,51.13
2022-10-17T02:36:36.581Z,50.89
2022-10-17T02:39:05.230Z,51.06
2022-10-17T02:41:32.872Z,50.92
2022-10-17T02:44:02.314Z,50.99
2022-10-17T02:46:30.619Z,51.07
2022-10-17T02:49:08.849Z,50.89
2022-10-17T02:51:47.445Z,51.01
2022-10-17T02:54:55.536Z,50.91
2022-10-17T02:57:34.256Z,50.96
2022-10-17T03:00:03.925Z,51.02
2022-10-17T03:02:42.786Z,50.76
2022-10-17T03:05:11.216Z,51.16
2022-10-17T03:07:37.903Z,51.04
2022-10-17T03:10:04.970Z,50.79
2022-10-17T03:12:31.681Z,51.03
2022-10-17T03:14:58.373Z,50.74
2022-10-17T03:17:24.924Z,50.69
2022-10-17T03:19:51.448Z,50.85
2022-10-17T03:22:17.957Z,50.98
2022-10-17T03:24:44.389Z,50.90
2022-10-17T03:27:10.953Z,50.96
2022-10-17T03:29:37.413Z,50.66
2022-10-17T03:32:03.986Z,50.90
2022-10-17T03:34:30.486Z,50.87
2022-10-17T03:36:57.016Z,50.79
2022-10-17T03:39:23.574Z,50.83
2022-10-17T03:41:50.010Z,50.75
2022-10-17T03:44:16.501Z,50.83
2022-10-17T03:46:43.096Z,51.02
2022-10-17T03:49:09.962Z,50.76
2022-10-17T03:51:37.257Z,50.90
2022-10-17T03:54:03.760Z,50.79
2022-10-17T03:56:30.248Z,50.94
2022-10-17T03:58:56.745Z,50.93
2022-10-17T04:01:23.672Z,50.78
2022-10-17T04:03:52.252Z,50.95
2022-10-17T04:06:19.320Z,50.88
2022-10-17T04:08:45.969Z,50.58
2022-10-17T04:11:15.792Z,50.80
2022-10-17T04:13:42.457Z,50.88
2022-10-17T04:16:14.277Z,50.98
2022-10-17T04:18:41.454Z,51.05
2022-10-17T04:21:08.381Z,50.66
2022-10-17T04:23:35.297Z,50.75
2022-10-17T04:26:03.517Z,50.74
2022-10-17T04:28:31.226Z,50.99
2022-10-17T04:31:10.061Z,50.73
2022-10-17T04:33:36.559Z,50.79
2022-10-17T04:36:06.032Z,50.73
2022-10-17T04:38:33.071Z,50.90
2022-10-17T04:41:04.837Z,50.81
2022-10-17T04:43:32.565Z,50.75
2022-10-17T04:46:00.095Z,50.63
2022-10-17T04:48:27.099Z,50.84
2022-10-17T04:50:58.858Z,50.79
2022-10-17T04:53:27.037Z,50.80
2022-10-17T04:55:53.750Z,50.73
2022-10-17T04:58:20.696Z,50.74
2022-10-17T05:00:47.277Z,50.77
2022-10-17T05:03:14.124Z,50.71
2022-10-17T05:05:41.794Z,50.85
2022-10-17T05:08:09.745Z,50.88
2022-10-17T05:10:41.828Z,50.73
2022-10-17T05:13:08.973Z,50.91
2022-10-17T05:15:35.965Z,50.77
2022-10-17T05:18:03.361Z,50.75
2022-10-17T05:20:29.687Z,50.91
2022-10-17T05:22:58.336Z,47.42
2022-10-17T05:25:24.890Z,49.38
2022-10-17T05:27:51.413Z,49.73
2022-10-17T05:30:18.124Z,49.97
2022-10-17T05:32:44.640Z,49.85
2022-10-17T05:35:11.108Z,50.08
2022-10-17T05:37:37.618Z,50.32
2022-10-17T05:40:04.784Z,50.31
2022-10-17T05:42:31.806Z,50.44
2022-10-17T05:44:58.484Z,50.37
2022-10-17T05:47:24.957Z,50.43
2022-10-17T05:49:52.579Z,50.42
2022-10-17T05:52:19.309Z,50.49
2022-10-17T05:54:45.956Z,50.36
2022-10-17T05:57:12.456Z,50.63
2022-10-17T05:59:38.912Z,50.53
2022-10-17T06:02:05.530Z,50.41
2022-10-17T06:04:32.590Z,50.40
2022-10-17T06:06:59.028Z,50.50
2022-10-17T06:09:25.724Z,50.34
2022-10-17T06:11:52.406Z,50.59
2022-10-17T06:14:18.908Z,50.57
2022-10-17T06:16:45.393Z,50.42
2022-10-17T06:19:11.853Z,50.29
2022-10-17T06:21:38.935Z,50.50
2022-10-17T06:24:05.633Z,50.41
2022-10-17T06:26:32.118Z,50.45
2022-10-17T06:28:58.625Z,50.40
2022-10-17T06:31:25.191Z,50.29
2022-10-17T06:33:51.674Z,50.74
2022-10-17T06:36:18.191Z,50.50
2022-10-17T06:38:44.658Z,50.46
2022-10-17T06:41:14.275Z,50.43
2022-10-17T06:43:46.467Z,50.46
2022-10-17T06:46:15.205Z,50.36
2022-10-17T06:48:41.730Z,50.34
2022-10-17T06:51:11.804Z,50.52
2022-10-17T06:53:40.261Z,50.53
2022-10-17T06:56:08.339Z,50.50
2022-10-17T06:58:39.137Z,50.53
2022-10-17T07:03:41.239Z,50.42
2022-10-17T07:06:08.320Z,50.46
2022-10-17T07:08:34.793Z,50.50
2022-10-17T07:11:13.380Z,50.47
2022-10-17T07:13:40.165Z,50.67
2022-10-17T07:16:06.985Z,50.94
2022-10-17T07:18:33.624Z,50.77
2022-10-17T07:21:00.446Z,50.31
2022-10-17T07:23:26.932Z,50.31
2022-10-17T07:25:53.483Z,50.52
2022-10-17T07:28:19.975Z,50.28
2022-10-17T07:30:50.600Z,50.41
2022-10-17T07:33:20.189Z,50.33
2022-10-17T07:35:46.714Z,50.46
2022-10-17T07:38:13.188Z,50.30
2022-10-17T07:40:39.635Z,50.50
2022-10-17T07:43:06.162Z,50.60
2022-10-17T07:45:32.704Z,50.40
2022-10-17T07:47:59.189Z,50.36
2022-10-17T07:50:25.941Z,50.51
2022-10-17T07:52:52.480Z,50.47
2022-10-17T07:55:18.962Z,50.37
2022-10-17T07:57:45.542Z,50.21
2022-10-17T08:00:12.402Z,50.49
2022-10-17T08:02:39.499Z,50.53
2022-10-17T08:05:06.377Z,50.48
2022-10-17T08:07:32.861Z,50.30
2022-10-17T08:09:59.440Z,50.45
2022-10-17T08:12:26.240Z,50.38
2022-10-17T08:14:52.779Z,50.45
2022-10-17T08:17:19.254Z,50.39
2022-10-17T08:19:45.715Z,50.32
2022-10-17T08:22:12.200Z,50.33
2022-10-17T08:24:38.657Z,50.38
2022-10-17T08:27:11.324Z,50.27
2022-10-17T08:29:38.636Z,50.42
2022-10-17T08:32:09.651Z,50.53
2022-10-17T08:34:36.460Z,50.45
2022-10-17T08:37:03.161Z,50.38
2022-10-17T08:39:29.697Z,50.40
2022-10-17T08:42:08.273Z,50.55
2022-10-17T08:45:08.082Z,50.26
2022-10-17T08:47:47.500Z,50.40
2022-10-17T08:50:26.096Z,50.40
2022-10-17T08:52:55.951Z,50.52
2022-10-17T08:55:44.611Z,50.20
2022-10-17T08:58:34.096Z,50.30
2022-10-17T09:01:12.761Z,50.24
2022-10-17T09:03:50.010Z,50.14
2022-10-17T09:06:19.181Z,49.94
2022-10-17T09:09:04.083Z,50.17
2022-10-17T09:12:01.356Z,50.08
2022-10-17T09:14:39.904Z,49.80
2022-10-17T09:17:33.897Z,49.74
2022-10-17T09:20:12.307Z,49.52
2022-10-17T09:22:45.520Z,49.79
2022-10-17T09:25:15.829Z,49.55
2022-10-17T09:27:46.637Z,49.43
2022-10-17T09:30:40.012Z,49.58
2022-10-17T09:33:28.163Z,49.58
2022-10-17T09:36:04.858Z,49.74
2022-10-17T09:38:39.121Z,49.59
2022-10-17T09:41:39.292Z,49.44
2022-10-17T09:44:13.917Z,49.39
2022-10-17T09:46:41.108Z,49.24
2022-10-17T09:49:19.590Z,49.33
2022-10-17T09:51:46.197Z,49.45
2022-10-17T09:54:24.005Z,49.32
2022-10-17T09:56:59.909Z,49.37
2022-10-17T09:59:36.224Z,49.41
2022-10-17T10:02:22.090Z,49.28
2022-10-17T10:05:07.245Z,49.23
2022-10-17T10:07:39.174Z,49.44
2022-10-17T10:10:26.272Z,49.12
2022-10-17T10:13:12.868Z,49.26
2022-10-17T10:15:42.293Z,49.34
2022-10-17T10:21:04.355Z,49.16
2022-10-17T10:23:30.849Z,49.17
2022-10-17T10:26:00.170Z,49.21
2022-10-17T10:28:30.983Z,49.18
2022-10-17T10:31:05.085Z,48.91
2022-10-17T10:33:34.827Z,49.20
2022-10-17T10:36:04.625Z,49.28
2022-10-17T10:38:33.769Z,49.27
2022-10-17T10:41:11.497Z,49.05
2022-10-17T10:43:42.613Z,48.99
2022-10-17T10:46:27.755Z,48.89
2022-10-17T10:49:03.171Z,49.05
2022-10-17T10:51:34.780Z,48.98
2022-10-17T10:54:14.374Z,49.00
2022-10-17T10:56:44.915Z,48.92
2022-10-17T10:59:22.656Z,49.04
2022-10-17T11:02:05.110Z,48.75
2022-10-17T11:04:47.741Z,48.70
2022-10-17T11:07:23.894Z,49.10
2022-10-17T11:10:00.167Z,49.15
2022-10-17T11:12:42.061Z,48.86
2022-10-17T11:15:27.018Z,49.06
2022-10-17T11:18:11.916Z,48.96
2022-10-17T11:20:44.033Z,49.06
2022-10-17T11:23:19.774Z,48.99
2022-10-17T11:25:50.173Z,48.95
2022-10-17T11:28:18.825Z,49.07
2022-10-17T11:30:55.382Z,48.80
2022-10-17T11:33:35.002Z,49.26
2022-10-17T11:36:07.042Z,49.22
2022-10-17T11:38:49.759Z,49.24
2022-10-17T11:41:42.792Z,49.14
2022-10-17T11:44:20.840Z,48.97
2022-10-17T11:46:58.705Z,49.08
2022-10-17T11:49:32.954Z,49.19
2022-10-17T11:52:51.839Z,49.25
2022-10-17T11:55:30.000Z,49.12
2022-10-17T11:58:18.317Z,49.18
2022-10-17T12:01:22.768Z,49.14
2022-10-17T12:04:16.578Z,49.26
2022-10-17T12:07:01.209Z,49.36
2022-10-17T12:09:48.899Z,49.50
2022-10-17T12:12:28.534Z,49.33
2022-10-17T12:15:12.934Z,49.57
2022-10-17T12:17:54.321Z,49.63
2022-10-17T12:20:21.353Z,49.30
2022-10-17T12:22:48.540Z,49.30
2022-10-17T12:25:30.260Z,49.27
2022-10-17T12:28:05.651Z,49.31
2022-10-17T12:30:32.999Z,49.21
2022-10-17T12:33:26.776Z,49.51
2022-10-17T12:36:31.636Z,49.21
2022-10-17T12:39:03.877Z,49.52
2022-10-17T12:41:39.242Z,49.56
2022-10-17T12:44:25.674Z,49.58
2022-10-17T12:46:58.048Z,49.46
2022-10-17T12:49:24.509Z,49.52
2022-10-17T12:52:18.809Z,49.31
2022-10-17T12:55:10.488Z,49.24
2022-10-17T12:57:53.359Z,49.23
2022-10-17T13:00:37.515Z,49.42
2022-10-17T13:03:12.225Z,49.42
2022-10-17T13:05:42.399Z,49.43
2022-10-17T13:08:32.134Z,49.50
2022-10-17T13:10:58.771Z,49.35
2022-10-17T13:13:52.126Z,49.29
2022-10-17T13:16:34.276Z,49.25
2022-10-17T13:19:02.201Z,49.19
2022-10-17T13:21:29.612Z,49.56
2022-10-17T13:23:56.479Z,49.68
2022-10-17T13:26:26.379Z,49.31
2022-10-17T13:29:13.817Z,49.29
2022-10-17T13:31:42.636Z,49.36
2022-10-17T13:34:22.270Z,49.49
2022-10-17T13:36:52.634Z,49.35
2022-10-17T13:39:32.603Z,49.57
2022-10-17T13:42:23.113Z,49.52
2022-10-17T13:44:49.949Z,49.62
2022-10-17T13:47:36.937Z,49.31
2022-10-17T13:50:12.793Z,49.51
2022-10-17T13:52:47.807Z,49.48
2022-10-17T13:55:20.154Z,49.56
2022-10-17T13:57:47.200Z,49.66
2022-10-17T14:00:22.922Z,49.65
2022-10-17T14:02:49.532Z,49.52
2022-10-17T14:05:20.735Z,49.53
2022-10-17T14:10:42.385Z,49.83
2022-10-17T14:13:21.048Z,49.46
2022-10-17T14:15:47.728Z,49.82
2022-10-17T14:18:18.981Z,49.85
2022-10-17T14:23:39.591Z,49.85
2022-10-17T14:26:13.067Z,49.81
2022-10-17T14:28:41.434Z,49.85
2022-10-17T14:31:22.154Z,49.64
2022-10-17T14:33:51.147Z,49.71
2022-10-17T14:36:18.471Z,49.79
2022-10-17T14:38:47.917Z,49.88
2022-10-17T14:44:31.048Z,49.65
2022-10-17T14:47:05.922Z,49.83
2022-10-17T14:49:40.849Z,49.74
2022-10-17T14:52:18.302Z,49.93
2022-10-17T14:54:47.738Z,49.76
2022-10-17T14:57:33.272Z,49.66
2022-10-17T15:00:00.093Z,49.59
2022-10-17T15:02:30.357Z,49.89
2022-10-17T15:04:57.249Z,49.90
2022-10-17T15:07:24.122Z,49.81
2022-10-17T15:09:52.333Z,49.87
2022-10-17T15:12:21.825Z,49.87
2022-10-17T15:14:48.626Z,49.79
2022-10-17T15:17:20.630Z,49.68
2022-10-17T15:19:48.168Z,49.86
2022-10-17T15:22:16.146Z,49.68
2022-10-17T15:24:43.127Z,49.81
2022-10-17T15:27:20.507Z,49.73
2022-10-17T15:29:47.509Z,49.96
2022-10-17T15:32:14.470Z,49.96
2022-10-17T15:34:41.357Z,49.88
2022-10-17T15:37:17.520Z,49.73
2022-10-17T15:39:45.254Z,49.74
2022-10-17T15:42:12.042Z,49.83
2022-10-17T15:44:38.516Z,49.83
2022-10-17T15:47:05.716Z,49.94
2022-10-17T15:49:33.952Z,49.82
2022-10-17T15:52:00.386Z,49.75
2022-10-17T15:54:26.832Z,49.51
2022-10-17T15:56:54.994Z,49.41
2022-10-17T15:59:25.844Z,49.43
2022-10-17T16:01:52.341Z,49.57
2022-10-17T16:04:19.025Z,49.63
2022-10-17T16:06:45.609Z,49.47
2022-10-17T16:09:12.152Z,49.75
2022-10-17T16:11:43.555Z,49.47
2022-10-17T16:14:12.774Z,49.45
2022-10-17T16:16:39.604Z,49.44
2022-10-17T16:19:06.823Z,49.70
2022-10-17T16:21:35.901Z,49.31
2022-10-17T16:24:03.612Z,49.64
2022-10-17T16:26:30.180Z,49.57
2022-10-17T16:28:58.181Z,49.46
2022-10-17T16:31:31.796Z,49.50
2022-10-17T16:33:59.755Z,49.39
2022-10-17T16:36:26.506Z,49.47
2022-10-17T16:38:54.153Z,49.09
2022-10-17T16:41:24.954Z,49.53
2022-10-17T16:43:53.305Z,49.59
2022-10-17T16:46:20.887Z,49.50
2022-10-17T16:48:48.152Z,49.48
2022-10-17T16:51:15.470Z,49.55
2022-10-17T16:53:43.910Z,49.57
2022-10-17T16:56:13.120Z,49.33
2022-10-17T16:58:41.716Z,49.58
2022-10-17T17:01:15.313Z,49.60
2022-10-17T17:03:43.815Z,51.01
2022-10-17T17:06:14.005Z,51.47
2022-10-17T17:08:41.635Z,51.22
2022-10-17T17:11:10.290Z,51.17
2022-10-17T17:13:36.917Z,51.34
2022-10-17T17:16:15.617Z,51.18
2022-10-17T17:18:42.418Z,51.17
2022-10-17T17:21:10.561Z,51.22
2022-10-17T17:23:39.714Z,51.06
2022-10-17T17:26:12.759Z,51.08
2022-10-17T17:28:39.901Z,51.07
2022-10-17T17:31:09.364Z,50.96
2022-10-17T17:33:38.757Z,51.15
2022-10-17T17:36:06.309Z,51.11
2022-10-17T17:38:35.544Z,51.14
2022-10-17T17:41:03.078Z,51.02
2022-10-17T17:43:29.720Z,51.21
2022-10-17T17:45:56.421Z,51.24
2022-10-17T17:48:22.993Z,51.22
2022-10-17T17:50:49.459Z,51.13
2022-10-17T17:53:17.717Z,50.93
2022-10-17T17:55:44.804Z,50.95
2022-10-17T17:58:12.412Z,51.07
2022-10-17T18:00:40.609Z,50.81
2022-10-17T18:03:07.319Z,50.92
2022-10-17T18:05:34.248Z,50.91
2022-10-17T18:08:00.769Z,51.02
2022-10-17T18:10:29.353Z,51.01
2022-10-17T18:12:55.802Z,51.00
2022-10-17T18:15:22.281Z,50.93
2022-10-17T18:17:49.201Z,50.94
2022-10-17T18:20:15.748Z,50.86
2022-10-17T18:22:42.209Z,51.03
2022-10-17T18:25:08.950Z,51.05
2022-10-17T18:27:35.505Z,50.72
2022-10-17T18:30:02.007Z,50.75
2022-10-17T18:32:31.696Z,50.84
2022-10-17T18:34:58.628Z,50.89
2022-10-17T18:37:25.170Z,51.73
2022-10-17T18:39:54.061Z,53.03
2022-10-17T18:42:20.676Z,53.99
2022-10-17T18:44:47.518Z,54.73
2022-10-17T18:47:14.244Z,55.38
2022-10-17T18:49:40.750Z,55.42
2022-10-17T18:52:07.420Z,54.80
2022-10-17T18:54:34.713Z,53.82
2022-10-17T18:57:01.148Z,53.34
2022-10-17T18:59:27.794Z,53.30
2022-10-17T19:01:54.387Z,53.28
2022-10-17T19:04:21.217Z,52.35
2022-10-17T19:06:47.713Z,52.38
2022-10-17T19:09:15.205Z,51.64
2022-10-17T19:11:42.845Z,51.74
2022-10-17T19:14:14.112Z,51.62
2022-10-17T19:16:46.586Z,51.59
2022-10-17T19:19:20.618Z,51.77
2022-10-17T19:21:47.337Z,51.28
2022-10-17T19:24:26.912Z,51.74
2022-10-17T19:26:56.009Z,51.34
2022-10-17T19:29:26.405Z,51.05
2022-10-17T19:31:53.143Z,51.03
2022-10-17T19:34:20.245Z,51.17
2022-10-17T19:36:46.825Z,51.01
2022-10-17T19:39:16.081Z,51.10
2022-10-17T19:41:44.605Z,50.98
2022-10-17T19:44:11.900Z,51.20
2022-10-17T19:46:38.733Z,51.19
2022-10-17T19:49:05.938Z,50.92
2022-10-17T19:51:32.780Z,51.12
2022-10-17T19:54:00.711Z,50.66
2022-10-17T19:56:30.546Z,50.92
2022-10-17T19:58:58.140Z,51.08
2022-10-17T20:01:27.585Z,50.99
2022-10-17T20:03:54.775Z,50.80
2022-10-17T20:06:21.947Z,50.80
2022-10-17T20:08:49.067Z,51.12
2022-10-17T20:11:19.108Z,50.92
2022-10-17T20:13:45.612Z,51.14
2022-10-17T20:16:16.788Z,51.31
2022-10-17T20:18:44.137Z,51.02
2022-10-17T20:21:12.350Z,51.40
2022-10-17T20:23:39.788Z,51.33
2022-10-17T20:26:25.363Z,51.70
2022-10-17T20:28:55.127Z,52.01
2022-10-17T20:31:21.647Z,51.92
2022-10-17T20:33:48.082Z,52.13
2022-10-17T20:36:16.565Z,52.40
2022-10-17T20:38:43.073Z,52.60
2022-10-17T20:41:10.168Z,52.54
2022-10-17T20:43:37.471Z,52.63
2022-10-17T20:46:21.957Z,52.43
2022-10-17T20:48:54.482Z,52.42
2022-10-17T20:51:21.774Z,52.40
2022-10-17T20:53:48.576Z,52.78
2022-10-17T20:56:23.332Z,52.58
2022-10-17T20:59:04.300Z,52.76
2022-10-17T21:01:32.622Z,52.39
2022-10-17T21:04:10.500Z,52.57
2022-10-17T21:06:48.104Z,52.43
2022-10-17T21:09:14.904Z,52.39
2022-10-17T21:11:41.424Z,52.28
2022-10-17T21:14:07.993Z,52.65
2022-10-17T21:16:37.393Z,52.35
2022-10-17T21:19:04.924Z,52.63
2022-10-17T21:21:33.918Z,52.49
2022-10-17T21:24:03.176Z,52.43
2022-10-17T21:26:32.792Z,52.56
2022-10-17T21:29:02.919Z,52.38
2022-10-17T21:31:29.508Z,52.72
2022-10-17T21:34:52.222Z,52.26
2022-10-17T21:37:18.745Z,52.42
2022-10-17T21:39:45.176Z,52.33
2022-10-17T21:42:11.684Z,52.05
2022-10-17T21:44:38.125Z,52.09
2022-10-17T21:47:04.637Z,51.92
2022-10-17T21:49:31.235Z,51.88
2022-10-17T21:51:58.293Z,51.85
2022-10-17T21:54:24.820Z,51.79
2022-10-17T21:56:51.668Z,51.99
2022-10-17T21:59:18.164Z,51.86
2022-10-17T22:01:45.763Z,52.08
2022-10-17T22:04:15.565Z,52.14
2022-10-17T22:06:45.062Z,51.70
2022-10-17T22:09:18.043Z,52.10
2022-10-17T22:11:47.260Z,52.04
2022-10-17T22:14:16.960Z,51.96
2022-10-17T22:16:45.308Z,51.97
2022-10-17T22:19:13.368Z,51.93
2022-10-17T22:21:40.172Z,51.90
2022-10-17T22:24:10.360Z,51.72
2022-10-17T22:26:38.004Z,51.76
2022-10-17T22:29:06.516Z,51.80
2022-10-17T22:31:33.959Z,51.57
2022-10-17T22:34:00.411Z,51.65
2022-10-17T22:36:27.085Z,51.73
2022-10-17T22:38:53.668Z,51.67
2022-10-17T22:41:20.537Z,51.78
2022-10-17T22:43:47.038Z,51.47
2022-10-17T22:46:14.765Z,51.76
2022-10-17T22:48:41.587Z,51.39
2022-10-17T22:51:08.465Z,51.34
2022-10-17T22:53:35.259Z,51.42
2022-10-17T22:56:13.944Z,51.66
2022-10-17T22:58:41.000Z,51.83
2022-10-17T23:01:10.126Z,51.67
2022-10-17T23:03:36.660Z,51.38
2022-10-17T23:06:03.742Z,51.36
2022-10-17T23:08:30.632Z,51.70
2022-10-17T23:10:57.102Z,51.53
2022-10-17T23:13:23.920Z,51.46
2022-10-17T23:15:52.804Z,51.58
2022-10-17T23:18:20.045Z,51.40
2022-10-17T23:20:46.484Z,51.57
2022-10-17T23:23:13.405Z,51.36
2022-10-17T23:25:40.025Z,51.35
2022-10-17T23:28:08.172Z,51.42
2022-10-17T23:30:35.874Z,51.50
2022-10-17T23:33:03.093Z,51.46
2022-10-17T23:35:29.605Z,51.35
2022-10-17T23:37:56.081Z,51.35
2022-10-17T23:40:22.545Z,51.32
2022-10-17T23:42:49.064Z,51.38
2022-10-17T23:45:15.946Z,51.33
2022-10-17T23:47:42.516Z,51.28
2022-10-17T23:50:09.230Z,51.24
2022-10-17T23:52:35.670Z,51.46
2022-10-17T23:55:02.119Z,51.36
2022-10-17T23:57:28.960Z,51.30
2022-10-17T23:59:55.657Z,51.54
